Aviation Digital Data Service (ADDS)

Output produced by TAFs form (0746 UTC 25 March 2017)
found at http://www.aviationweather.gov/adds/tafs/
 
METAR text: RJOB 250700Z 13007KT 090V180 9999 FEW030 BKN110 BKN120 09/M03 Q1016
Conditions at: RJOB (OKAYAMA AIRPORT , JP) observed 0700 UTC 25 March 2017
Temperature: 9.0°C (48°F)
Dewpoint: -3.0°C (27°F) [RH = 43%]
Pressure (altimeter): 30.00 inches Hg (1016.0 mb)
Winds: from the SE (130 degrees) at 8 MPH (7 knots; 3.6 m/s)
Visibility: 6 or more miles (10+ km)
Ceiling: 11000 feet AGL
Clouds: few clouds at 3000 feet AGL
broken clouds at 11000 feet AGL
broken clouds at 12000 feet AGL
Weather: no significant weather observed at this time

Forecast for: RJOB (OKAYAMA AIRPORT , JP)
Text: TAF RJOB 250506Z 2506/2612 16006KT 9999 FEW030
Forecast period: 0600 to 0900 UTC 25 March 2017
Forecast type: FROM: standard forecast or significant change
Winds: from the SSE (160 degrees) at 7 MPH (6 knots; 3.1 m/s)
Visibility: 6 or more miles (10+ km)
Clouds: few clouds at 3000 feet AGL
Weather: no significant weather forecast for this period
Text: BECMG 2509/2511 02004KT
Forecast period: 0900 UTC 25 March 2017 to 1200 UTC 26 March 2017
Forecast type: BECOMING: Conditions expected to become as follows by 1100 UTC 25 March 2017
Winds: from the NNE (20 degrees) at 5 MPH (4 knots; 2.1 m/s)
Visibility: 6 or more miles (10+ km)
Clouds: few clouds at 3000 feet AGL
Weather: no significant weather forecast for this period